Time;durP1;ratioP1;P1;durP2;ratioP2;P2;SDS_P1;SDS_P2;PMS_P1;PMS_P2;Temp;Humidity;BMP_temperature;BMP_pressure;BME280_temperature;BME280_humidity;BME280_pressure;Samples;Min_cycle;Max_cycle;Signal;HPM_P1;HPM_P2
2022/08/31 00:05:56;;;;;;;1.40;0.60;;;;;;;16.45;61.28;101562.30;108436;1273;60582;-88
2022/08/31 00:08:24;;;;;;;1.50;0.70;;;;;;;16.44;61.42;101563.64;108526;1273;75156;-89
2022/08/31 00:10:54;;;;;;;2.00;0.70;;;;;;;16.43;61.43;101560.42;108380;1273;69475;-89
2022/08/31 00:13:22;;;;;;;1.20;0.60;;;;;;;16.44;61.50;101562.20;108331;1273;71564;-89
2022/08/31 00:15:50;;;;;;;1.70;0.70;;;;;;;16.45;61.42;101558.92;108429;1273;62228;-89
2022/08/31 00:18:18;;;;;;;1.20;0.80;;;;;;;16.46;61.29;101560.70;108291;1273;60422;-89
2022/08/31 00:20:46;;;;;;;1.50;0.60;;;;;;;16.46;61.47;101560.61;108463;1272;74645;-89
2022/08/31 00:23:15;;;;;;;2.00;0.70;;;;;;;16.44;61.51;101559.73;108373;1273;72399;-89
2022/08/31 00:25:45;;;;;;;1.30;0.70;;;;;;;16.44;61.56;101554.54;108357;1273;73002;-88
2022/08/31 00:28:13;;;;;;;1.40;0.70;;;;;;;16.43;61.44;101560.75;108297;1273;61271;-88
2022/08/31 00:30:41;;;;;;;2.10;0.60;;;;;;;16.41;61.53;101559.83;108376;1272;61709;-89
2022/08/31 00:33:10;;;;;;;1.70;0.60;;;;;;;16.39;61.68;101559.36;108354;1273;76184;-89
2022/08/31 00:35:40;;;;;;;1.70;0.60;;;;;;;16.37;61.76;101560.06;108308;1271;72511;-89
2022/08/31 00:38:08;;;;;;;1.20;0.60;;;;;;;16.37;61.92;101561.10;108358;1272;72986;-88
2022/08/31 00:40:36;;;;;;;1.70;0.80;;;;;;;16.37;61.85;101562.46;108341;1272;61907;-88
2022/08/31 00:43:29;;;;;;;1.40;0.70;;;;;;;16.34;61.85;101557.25;108147;1273;61600;-88
2022/08/31 00:45:57;;;;;;;3.60;0.80;;;;;;;16.33;62.06;101557.27;108284;1273;75145;-89
2022/08/31 00:48:25;;;;;;;1.40;0.70;;;;;;;16.31;62.09;101559.70;108368;1273;72075;-89
2022/08/31 00:50:55;;;;;;;1.20;0.70;;;;;;;16.27;62.31;101549.19;108270;1273;73213;-87
2022/08/31 00:53:23;;;;;;;2.20;0.80;;;;;;;16.25;62.40;101547.27;108247;1273;62351;-89
2022/08/31 00:55:50;;;;;;;1.50;0.60;;;;;;;16.23;62.42;101545.61;108209;1272;62561;-88
2022/08/31 00:58:20;;;;;;;2.70;0.80;;;;;;;16.21;62.73;101546.34;108236;1273;76013;-88
2022/08/31 01:00:50;;;;;;;2.00;0.60;;;;;;;16.18;62.63;101542.59;108250;1273;70948;-87
2022/08/31 01:03:20;;;;;;;1.80;0.60;;;;;;;16.17;62.92;101543.50;108351;1272;74087;-89
2022/08/31 01:05:48;;;;;;;3.00;0.80;;;;;;;16.14;63.15;101543.71;108349;1272;62448;-89
2022/08/31 01:08:16;;;;;;;2.20;0.80;;;;;;;16.12;63.13;101543.70;108376;1272;61389;-89
2022/08/31 01:10:53;;;;;;;2.00;0.70;;;;;;;16.10;63.28;101541.33;108322;1272;75951;-88
2022/08/31 01:13:20;;;;;;;1.60;0.50;;;;;;;16.07;63.40;101540.06;108245;1273;73137;-89
2022/08/31 01:15:52;;;;;;;2.10;1.00;;;;;;;16.03;63.31;101538.83;108326;1272;73272;-88
2022/08/31 01:18:22;;;;;;;2.10;0.70;;;;;;;16.00;63.35;101539.16;108340;1272;62479;-89
2022/08/31 01:21:28;;;;;;;1.30;0.70;;;;;;;15.99;63.38;101544.34;108339;1272;60742;-88
2022/08/31 01:23:59;;;;;;;3.20;1.00;;;;;;;15.94;63.57;101540.75;108295;1273;74868;-89
2022/08/31 01:26:28;;;;;;;1.50;0.70;;;;;;;15.91;63.48;101545.78;108310;1273;71406;-89
2022/08/31 01:29:00;;;;;;;2.30;0.70;;;;;;;15.88;63.68;101548.23;108329;1272;76073;-89
2022/08/31 01:31:31;;;;;;;1.70;0.80;;;;;;;15.86;63.74;101546.89;108374;1273;63204;-88
2022/08/31 01:34:00;;;;;;;1.60;0.80;;;;;;;15.85;63.83;101550.55;108239;1273;59992;-88
2022/08/31 01:36:27;;;;;;;3.50;0.90;;;;;;;15.84;63.95;101551.93;108247;1273;74906;-89
2022/08/31 01:41:20;;;;;;;2.70;1.10;;;;;;;15.79;64.11;101554.95;108340;1261;59215;-88
2022/08/31 01:43:47;;;;;;;1.70;0.90;;;;;;;15.77;64.10;101557.45;108334;1270;59175;-88
2022/08/31 01:46:14;;;;;;;2.50;1.00;;;;;;;15.77;64.12;101552.20;108446;1269;60602;-87
2022/08/31 01:48:43;;;;;;;2.40;0.80;;;;;;;15.75;64.25;101552.23;108298;1270;74597;-89
2022/08/31 01:51:12;;;;;;;2.30;0.70;;;;;;;15.72;64.38;101552.73;108427;1271;72441;-89
2022/08/31 01:53:41;;;;;;;2.30;0.70;;;;;;;15.66;64.61;101546.79;108231;1270;75513;-88
2022/08/31 01:56:14;;;;;;;2.20;0.70;;;;;;;15.60;64.74;101548.15;108400;1270;62799;-88
2022/08/31 01:58:41;;;;;;;1.90;0.80;;;;;;;15.54;64.85;101547.51;108416;1270;61893;-89
2022/08/31 02:01:10;;;;;;;3.80;0.80;;;;;;;15.49;65.20;101550.48;108424;1270;73970;-88
2022/08/31 02:03:58;;;;;;;3.70;1.00;;;;;;;15.43;65.33;101551.23;108335;1271;72106;-88
2022/08/31 02:06:25;;;;;;;2.20;0.90;;;;;;;15.38;65.70;101552.16;108274;1270;73559;-88
2022/08/31 02:08:53;;;;;;;1.50;0.80;;;;;;;15.33;65.88;101553.60;108426;1270;62723;-88
2022/08/31 02:13:45;;;;;;;1.80;0.80;;;;;;;15.23;66.27;101556.34;108431;1267;59529;-88
2022/08/31 02:16:12;;;;;;;2.10;0.80;;;;;;;15.19;66.66;101561.23;108467;1271;59524;-89
2022/08/31 02:18:40;;;;;;;1.40;0.60;;;;;;;15.17;66.87;101562.46;108208;1273;74832;-88
2022/08/31 02:21:07;;;;;;;2.50;0.60;;;;;;;15.17;66.84;101564.04;108348;1270;63126;-88
2022/08/31 02:23:34;;;;;;;1.50;0.70;;;;;;;15.18;66.82;101562.70;108210;1270;61496;-89
2022/08/31 02:26:01;;;;;;;1.70;0.60;;;;;;;15.19;66.82;101562.91;108358;1270;76221;-88
2022/08/31 02:28:30;;;;;;;2.50;0.70;;;;;;;15.18;67.07;101563.70;108473;1269;71261;-87
2022/08/31 02:30:57;;;;;;;1.50;0.80;;;;;;;15.17;66.98;101561.29;108368;1270;73835;-89
2022/08/31 02:33:25;;;;;;;1.30;0.70;;;;;;;15.16;67.20;101560.21;108401;1271;63225;-88
2022/08/31 02:35:52;;;;;;;1.50;0.70;;;;;;;15.15;67.14;101560.77;108350;1271;60396;-88
2022/08/31 02:38:21;;;;;;;2.40;0.60;;;;;;;15.14;67.33;101560.45;108512;1270;74856;-91
2022/08/31 02:40:50;;;;;;;2.00;0.70;;;;;;;15.12;67.46;101560.85;108441;1270;73005;-89
2022/08/31 02:43:17;;;;;;;1.60;0.70;;;;;;;15.11;67.62;101560.33;108350;1270;72994;-88
2022/08/31 02:45:50;;;;;;;2.00;0.70;;;;;;;15.10;67.74;101562.34;108253;1273;61970;-88
2022/08/31 02:50:51;;;;;;;1.40;0.70;;;;;;;15.13;67.88;101563.95;108375;1271;74105;-88
2022/08/31 02:53:21;;;;;;;2.10;0.80;;;;;;;15.15;67.78;101568.66;108341;1273;71389;-88
2022/08/31 02:55:48;;;;;;;1.80;0.80;;;;;;;15.18;67.84;101567.05;108342;1270;72862;-88
2022/08/31 02:58:16;;;;;;;2.10;0.60;;;;;;;15.21;67.84;101567.51;108379;1271;64429;-87
2022/08/31 03:00:52;;;;;;;1.70;0.70;;;;;;;15.22;67.76;101559.67;108391;1271;61379;-88
2022/08/31 03:03:20;;;;;;;1.40;0.70;;;;;;;15.24;67.84;101565.16;108451;1271;76107;-88
2022/08/31 03:05:48;;;;;;;1.70;0.60;;;;;;;15.28;67.79;101565.38;108381;1271;71196;-88
2022/08/31 03:08:15;;;;;;;2.20;0.90;;;;;;;15.30;67.79;101565.01;108346;1271;72226;-87
2022/08/31 03:10:43;;;;;;;2.00;0.80;;;;;;;15.32;67.63;101561.66;108227;1271;62468;-88
2022/08/31 03:13:10;;;;;;;2.20;0.80;;;;;;;15.30;67.76;101560.08;108435;1271;60508;-89
2022/08/31 03:15:41;;;;;;;2.30;0.90;;;;;;;15.32;67.77;101555.27;108361;1271;74988;-87
2022/08/31 03:18:09;;;;;;;2.20;0.80;;;;;;;15.32;67.65;101555.02;108426;1272;72378;-87
2022/08/31 03:20:36;;;;;;;2.10;0.90;;;;;;;15.33;67.58;101552.28;108238;1271;73947;-87
2022/08/31 03:23:03;;;;;;;3.00;1.10;;;;;;;15.33;67.60;101544.27;108340;1271;63267;-88
2022/08/31 03:25:31;;;;;;;1.50;0.60;;;;;;;15.33;67.78;101542.33;108323;1271;61615;-89
2022/08/31 03:27:59;;;;;;;1.90;0.80;;;;;;;15.31;67.86;101539.52;108178;1273;74308;-88
2022/08/31 03:30:27;;;;;;;1.90;0.80;;;;;;;15.27;67.93;101541.80;108366;1271;73967;-87
2022/08/31 03:32:57;;;;;;;2.10;0.80;;;;;;;15.25;67.98;101536.35;108334;1271;73696;-87
2022/08/31 03:35:29;;;;;;;1.40;0.90;;;;;;;15.23;68.02;101535.49;108427;1271;63350;-88
2022/08/31 03:37:56;;;;;;;2.10;0.90;;;;;;;15.22;67.91;101538.95;108255;1273;60593;-88
2022/08/31 03:40:23;;;;;;;1.40;0.80;;;;;;;15.22;67.98;101536.71;108322;1271;74881;-88
2022/08/31 03:42:51;;;;;;;3.20;1.00;;;;;;;15.19;68.13;101539.89;108383;1271;70376;-87
2022/08/31 03:45:18;;;;;;;2.00;0.90;;;;;;;15.15;68.32;101542.52;108410;1271;74299;-88
2022/08/31 03:47:46;;;;;;;2.10;0.90;;;;;;;15.11;68.24;101542.31;108341;1271;61347;-88
2022/08/31 03:50:14;;;;;;;2.10;0.90;;;;;;;15.05;68.40;101538.54;108226;1272;61082;-88
2022/08/31 03:52:41;;;;;;;1.60;0.90;;;;;;;15.01;68.65;101542.59;108409;1271;74937;-88
2022/08/31 03:55:12;;;;;;;1.90;0.80;;;;;;;14.96;68.93;101541.91;108162;1274;71373;-88
2022/08/31 03:57:39;;;;;;;1.80;0.90;;;;;;;14.91;68.87;101546.39;108323;1272;73466;-88
2022/08/31 04:00:07;;;;;;;1.70;0.80;;;;;;;14.86;69.07;101545.34;108410;1271;60883;-88
2022/08/31 04:02:38;;;;;;;2.50;0.70;;;;;;;14.81;69.26;101545.59;108300;1271;60281;-87
2022/08/31 04:05:06;;;;;;;2.30;0.80;;;;;;;14.74;69.44;101544.73;108324;1271;75895;-88
2022/08/31 04:07:36;;;;;;;1.80;0.80;;;;;;;14.66;69.74;101550.27;108289;1273;71354;-88
2022/08/31 04:10:10;;;;;;;3.40;0.90;;;;;;;14.58;70.14;101550.85;108443;1271;73773;-88
2022/08/31 04:12:37;;;;;;;2.50;1.20;;;;;;;14.50;70.67;101554.13;108312;1271;62070;-87
2022/08/31 04:15:05;;;;;;;1.90;0.80;;;;;;;14.42;70.67;101558.86;108226;1273;60591;-88
2022/08/31 04:17:32;;;;;;;2.30;0.80;;;;;;;14.37;71.01;101560.73;108186;1272;76206;-87
2022/08/31 04:20:00;;;;;;;2.70;0.80;;;;;;;14.32;71.27;101563.43;108284;1271;71901;-87
2022/08/31 04:22:27;;;;;;;1.70;0.90;;;;;;;14.29;71.53;101564.38;108273;1273;73305;-87
2022/08/31 04:24:54;;;;;;;3.00;0.70;;;;;;;14.29;71.78;101569.51;108433;1271;61387;-87
2022/08/31 04:27:21;;;;;;;1.50;0.80;;;;;;;14.32;72.02;101574.67;108306;1271;60331;-87
2022/08/31 04:29:50;;;;;;;2.10;0.90;;;;;;;14.35;72.00;101572.52;108502;1273;74950;-88
2022/08/31 04:32:17;;;;;;;1.70;0.90;;;;;;;14.39;71.80;101579.34;108384;1271;71913;-88
2022/08/31 04:37:22;;;;;;;2.50;0.80;;;;;;;14.52;72.01;101586.20;108478;1270;62214;-85
2022/08/31 04:39:50;;;;;;;3.00;1.20;;;;;;;14.59;71.96;101590.29;108456;1270;61896;-88
2022/08/31 04:42:18;;;;;;;2.20;0.90;;;;;;;14.63;71.86;101589.77;108508;1270;76451;-87
2022/08/31 04:44:45;;;;;;;8.40;6.50;;;;;;;14.66;71.82;101591.20;108409;1271;71561;-87
2022/08/31 04:47:15;;;;;;;3.60;1.10;;;;;;;14.67;71.67;101595.00;108442;1271;72947;-87
2022/08/31 04:49:43;;;;;;;2.30;1.00;;;;;;;14.69;71.73;101595.36;108535;1270;62050;-88
2022/08/31 04:52:10;;;;;;;1.70;0.90;;;;;;;14.70;71.67;101600.39;108489;1270;60786;-88
2022/08/31 04:54:38;;;;;;;1.60;0.70;;;;;;;14.71;71.70;101598.81;108480;1271;74948;-88
2022/08/31 04:57:05;;;;;;;4.50;1.50;;;;;;;14.74;71.65;101597.79;108478;1270;72644;-86
2022/08/31 04:59:33;;;;;;;2.80;1.00;;;;;;;14.75;71.59;101597.51;108429;1271;73097;-86
2022/08/31 05:02:00;;;;;;;1.60;0.70;;;;;;;14.75;71.80;101595.17;108510;1270;61610;-86
2022/08/31 05:04:30;;;;;;;1.30;0.70;;;;;;;14.76;71.52;101596.54;108510;1271;61522;-86
2022/08/31 05:06:57;;;;;;;1.80;0.80;;;;;;;14.76;71.70;101599.54;108295;1271;75694;-88
2022/08/31 05:09:25;;;;;;;2.00;0.80;;;;;;;14.75;71.67;101599.23;108547;1270;71332;-88
2022/08/31 05:11:55;;;;;;;2.30;0.70;;;;;;;14.76;71.54;101600.04;108476;1271;73894;-88
2022/08/31 05:14:23;;;;;;;2.00;0.80;;;;;;;14.77;71.78;101605.11;108507;1271;62205;-88
2022/08/31 05:16:51;;;;;;;3.50;1.00;;;;;;;14.79;72.21;101603.95;108588;1270;60630;-86
2022/08/31 05:19:19;;;;;;;3.80;0.90;;;;;;;14.84;72.15;101607.84;108716;1270;75393;-85
2022/08/31 05:21:46;;;;;;;2.70;1.40;;;;;;;14.87;71.93;101609.95;108556;1270;71372;-86
2022/08/31 05:24:20;;;;;;;3.00;0.90;;;;;;;14.91;71.60;101609.11;108457;1271;72865;-86
2022/08/31 05:26:53;;;;;;;2.40;1.00;;;;;;;14.97;71.80;101616.78;108405;1271;62365;-85
2022/08/31 05:29:23;;;;;;;2.10;0.80;;;;;;;15.03;71.72;101617.27;108455;1271;61602;-85
2022/08/31 05:31:50;;;;;;;2.20;0.90;;;;;;;15.13;72.15;101615.80;108569;1268;75559;-86
2022/08/31 05:34:22;;;;;;;3.10;0.90;;;;;;;15.22;71.73;101620.66;108399;1271;71066;-86
2022/08/31 05:36:52;;;;;;;3.10;1.10;;;;;;;15.30;71.55;101622.90;108537;1270;73492;-86
2022/08/31 05:39:19;;;;;;;2.50;0.80;;;;;;;15.33;70.82;101625.73;108533;1270;62149;-87
2022/08/31 05:41:47;;;;;;;2.10;1.00;;;;;;;15.34;70.65;101623.79;108029;1270;61296;-86
2022/08/31 05:44:14;;;;;;;4.10;1.00;;;;;;;15.35;70.57;101621.24;108339;1270;76036;-87
2022/08/31 05:46:42;;;;;;;1.60;0.70;;;;;;;15.36;70.87;101623.41;108361;1271;71820;-86
2022/08/31 05:49:09;;;;;;;2.40;1.10;;;;;;;15.34;70.75;101623.91;108434;1270;71783;-86
2022/08/31 05:51:37;;;;;;;3.10;0.90;;;;;;;15.34;70.98;101627.73;108584;1269;63700;-86
2022/08/31 05:54:09;;;;;;;2.40;1.00;;;;;;;15.34;70.79;101628.39;108579;1271;61583;-87
2022/08/31 05:56:40;;;;;;;3.70;1.90;;;;;;;15.34;70.90;101631.44;108572;1271;72855;-87
2022/08/31 05:59:09;;;;;;;3.60;0.80;;;;;;;15.38;71.15;101629.77;108420;1272;70765;-87
2022/08/31 06:01:38;;;;;;;5.50;1.70;;;;;;;15.44;71.15;101631.00;108559;1270;73523;-87
2022/08/31 06:04:07;;;;;;;5.70;1.10;;;;;;;15.52;71.23;101628.74;108481;1271;61350;-88
2022/08/31 06:06:34;;;;;;;7.00;1.00;;;;;;;15.57;70.72;101630.98;108667;1270;61269;-88
2022/08/31 06:09:01;;;;;;;3.80;1.70;;;;;;;15.63;70.95;101630.64;108613;1271;74992;-88
2022/08/31 06:11:29;;;;;;;2.50;1.10;;;;;;;15.70;70.86;101634.63;108621;1271;72780;-88
2022/08/31 06:13:59;;;;;;;5.70;1.90;;;;;;;15.79;70.88;101644.23;108569;1270;71754;-88
2022/08/31 06:16:27;;;;;;;3.30;0.90;;;;;;;15.88;70.49;101644.05;108557;1270;63421;-88
2022/08/31 06:18:57;;;;;;;2.10;0.90;;;;;;;15.93;70.17;101647.03;108565;1271;61090;-88
2022/08/31 06:21:30;;;;;;;3.40;0.80;;;;;;;15.97;70.09;101651.81;108532;1271;74717;-89
2022/08/31 06:24:02;;;;;;;5.30;1.10;;;;;;;16.01;70.09;101652.85;108541;1271;71888;-88
2022/08/31 06:26:31;;;;;;;3.10;1.00;;;;;;;16.06;70.00;101651.55;108499;1271;73018;-89
2022/08/31 06:29:01;;;;;;;2.90;1.00;;;;;;;16.10;69.85;101653.37;108569;1271;64145;-89
2022/08/31 06:31:37;;;;;;;4.60;0.90;;;;;;;16.15;69.90;101651.34;108627;1271;59610;-89
2022/08/31 06:34:06;;;;;;;3.00;0.90;;;;;;;16.21;69.83;101652.52;108574;1271;75283;-89
2022/08/31 06:36:34;;;;;;;3.90;0.90;;;;;;;16.30;69.69;101656.98;108568;1271;72215;-89
2022/08/31 06:39:02;;;;;;;2.40;1.00;;;;;;;16.31;69.23;101650.93;108613;1270;72902;-89
2022/08/31 06:41:32;;;;;;;2.50;0.90;;;;;;;16.32;69.27;101656.84;107307;1271;1629927;-89
2022/08/31 06:44:09;;;;;;;2.20;0.70;;;;;;;16.35;69.17;101653.69;108560;1271;61884;-88
2022/08/31 06:46:38;;;;;;;10.00;5.70;;;;;;;16.39;69.19;101660.54;108615;1270;75025;-86
2022/08/31 06:51:38;;;;;;;4.00;1.30;;;;;;;16.61;69.15;101662.45;108464;1261;157045;-87
2022/08/31 06:54:07;;;;;;;5.00;1.80;;;;;;;16.78;68.56;101659.23;108548;1270;61981;-87
2022/08/31 06:56:57;;;;;;;4.20;1.80;;;;;;;16.97;68.08;101657.45;108600;1270;63028;-86
2022/08/31 06:59:24;;;;;;;5.60;1.80;;;;;;;17.13;67.67;101662.23;108705;1270;74993;-87
2022/08/31 07:01:54;;;;;;;5.90;2.20;;;;;;;17.32;67.52;101663.69;108636;1270;72484;-87
2022/08/31 07:04:21;;;;;;;4.10;1.60;;;;;;;17.45;66.72;101663.41;108676;1270;74682;-87
2022/08/31 07:06:49;;;;;;;9.50;6.40;;;;;;;17.55;66.33;101662.69;108675;1270;63680;-87
2022/08/31 07:11:54;;;;;;;4.30;1.30;;;;;;;17.79;65.86;101668.60;108577;1270;75066;-85
2022/08/31 07:14:24;;;;;;;3.30;1.20;;;;;;;17.91;65.27;101669.95;108525;1270;71229;-86
2022/08/31 07:16:55;;;;;;;3.70;1.10;;;;;;;18.04;65.15;101671.88;108466;1270;73103;-87
2022/08/31 07:19:26;;;;;;;2.70;0.80;;;;;;;18.13;64.42;101674.05;108506;1270;63390;-86
2022/08/31 07:21:55;;;;;;;4.00;1.80;;;;;;;18.17;64.12;101676.62;108479;1271;60626;-87
2022/08/31 07:24:28;;;;;;;4.00;1.10;;;;;;;18.21;63.86;101678.24;108484;1270;73864;-87
2022/08/31 07:27:10;;;;;;;3.00;0.90;;;;;;;18.23;63.80;101680.41;108513;1270;71568;-86
2022/08/31 07:29:41;;;;;;;2.80;0.70;;;;;;;18.29;63.80;101677.61;108387;1271;72888;-86
2022/08/31 07:32:10;;;;;;;3.20;0.90;;;;;;;18.33;63.52;101677.52;108658;1270;61257;-87
2022/08/31 07:34:38;;;;;;;2.60;1.00;;;;;;;18.34;63.46;101674.00;108508;1270;60444;-87
2022/08/31 07:42:43;;;;;;;3.00;0.80;;;;;;;18.56;63.59;101675.70;108453;1273;72545;-86
2022/08/31 07:45:20;;;;;;;1.90;0.60;;;;;;;18.70;63.31;101676.17;108419;1273;62427;-84
2022/08/31 07:47:50;;;;;;;3.30;0.70;;;;;;;18.72;62.64;101677.70;108359;1273;60767;-84
2022/08/31 07:50:18;;;;;;;2.10;0.70;;;;;;;18.64;62.53;101676.59;108373;1273;74995;-85
2022/08/31 07:52:52;;;;;;;2.50;0.70;;;;;;;18.59;62.57;101677.14;108435;1272;72413;-87
2022/08/31 07:55:22;;;;;;;4.30;1.30;;;;;;;18.61;62.62;101677.44;108452;1272;72936;-86
2022/08/31 07:57:52;;;;;;;23.60;16.90;;;;;;;18.63;62.56;101673.30;108410;1273;61465;-86
2022/08/31 08:00:27;;;;;;;8.10;3.90;;;;;;;18.81;63.08;101678.15;108510;1272;62248;-87
2022/08/31 08:02:54;;;;;;;4.50;1.60;;;;;;;19.06;62.67;101675.31;108287;1273;74942;-87
2022/08/31 08:05:25;;;;;;;4.30;1.10;;;;;;;19.26;61.68;101676.63;108502;1271;72647;-87
2022/08/31 08:07:56;;;;;;;2.40;0.90;;;;;;;19.43;61.27;101680.86;108500;1273;73046;-87
2022/08/31 08:10:25;;;;;;;2.30;0.70;;;;;;;19.61;60.72;101679.67;108480;1272;63396;-87
2022/08/31 08:13:02;;;;;;;4.80;0.90;;;;;;;19.72;59.97;101678.71;108360;1273;62271;-87
2022/08/31 08:15:33;;;;;;;2.50;0.70;;;;;;;19.85;59.59;101682.65;108413;1272;76094;-89
2022/08/31 08:18:09;;;;;;;3.70;2.10;;;;;;;20.04;59.39;101681.30;108456;1273;71397;-89
2022/08/31 08:20:37;;;;;;;2.30;0.70;;;;;;;20.25;58.70;101685.92;108570;1271;72991;-86
2022/08/31 08:23:13;;;;;;;2.60;0.70;;;;;;;20.36;58.25;101686.86;108330;1272;62342;-87
2022/08/31 08:25:44;;;;;;;2.10;0.70;;;;;;;20.49;58.05;101685.70;108412;1273;59921;-87
2022/08/31 08:28:16;;;;;;;5.90;2.40;;;;;;;20.56;57.49;101686.55;108416;1273;75987;-87
2022/08/31 08:31:10;;;;;;;3.90;0.90;;;;;;;20.69;57.57;101685.02;108466;1272;70965;-87
2022/08/31 08:33:37;;;;;;;7.70;3.10;;;;;;;20.84;57.47;101688.53;108458;1273;74012;-89
2022/08/31 08:36:07;;;;;;;3.90;1.50;;;;;;;20.95;56.62;101688.66;108376;1274;60487;-87
2022/08/31 08:38:38;;;;;;;2.90;0.90;;;;;;;20.94;55.93;101687.38;108445;1273;60361;-87
2022/08/31 08:41:12;;;;;;;3.50;0.70;;;;;;;20.92;56.20;101687.30;108528;1273;75010;-88
2022/08/31 08:43:46;;;;;;;3.70;1.00;;;;;;;20.90;56.29;101687.95;108370;1274;71474;-87
2022/08/31 08:46:26;;;;;;;6.00;1.40;;;;;;;20.90;56.30;101689.39;108412;1272;73351;-88
2022/08/31 08:49:13;;;;;;;3.30;1.20;;;;;;;20.91;55.97;101688.48;108353;1273;60726;-87
2022/08/31 08:51:41;;;;;;;2.20;0.60;;;;;;;20.90;55.88;101693.06;108413;1273;60509;-88
2022/08/31 08:54:27;;;;;;;1.80;0.60;;;;;;;20.90;56.19;101695.70;108331;1273;75163;-88
2022/08/31 08:56:58;;;;;;;6.30;4.20;;;;;;;20.90;56.16;101692.67;108384;1272;71581;-88
2022/08/31 08:59:27;;;;;;;3.20;1.50;;;;;;;20.86;56.23;101692.62;108432;1272;73960;-87
2022/08/31 09:02:00;;;;;;;3.80;1.20;;;;;;;20.92;56.03;101691.75;108435;1272;61637;-87
2022/08/31 09:04:46;;;;;;;4.20;1.50;;;;;;;20.95;55.68;101688.11;108386;1273;60287;-86
2022/08/31 09:07:16;;;;;;;2.20;0.90;;;;;;;20.90;55.60;101693.21;108368;1272;77666;-86
2022/08/31 09:10:25;;;;;;;5.20;1.00;;;;;;;20.83;55.11;101686.17;108466;1273;71341;-86
2022/08/31 09:13:13;;;;;;;3.90;0.80;;;;;;;20.77;55.35;101687.04;108269;1273;73070;-87
2022/08/31 09:15:55;;;;;;;5.30;1.00;;;;;;;20.70;55.39;101690.38;108492;1272;60817;-88
2022/08/31 09:18:43;;;;;;;4.10;0.90;;;;;;;20.67;55.61;101688.70;108449;1274;59623;-87
2022/08/31 09:21:19;;;;;;;2.50;0.80;;;;;;;20.75;55.57;101690.26;108531;1273;76601;-87
2022/08/31 09:23:53;;;;;;;2.70;0.60;;;;;;;20.90;54.27;101689.81;108533;1272;71487;-87
2022/08/31 09:26:24;;;;;;;2.80;0.70;;;;;;;21.04;52.58;101692.81;108466;1274;73102;-87
2022/08/31 09:28:51;;;;;;;3.60;0.70;;;;;;;21.19;52.40;101692.17;108504;1273;62061;-89
2022/08/31 09:31:33;;;;;;;1.30;0.60;;;;;;;21.32;51.93;101686.45;108469;1273;61320;-88
2022/08/31 09:34:01;;;;;;;3.30;0.80;;;;;;;21.54;51.81;101689.43;108478;1273;75181;-88
2022/08/31 09:36:39;;;;;;;2.10;0.70;;;;;;;21.74;51.47;101686.63;108407;1274;72511;-87
2022/08/31 09:39:29;;;;;;;2.60;0.70;;;;;;;21.90;50.04;101688.16;108412;1274;73059;-87
2022/08/31 09:42:17;;;;;;;2.70;0.80;;;;;;;22.12;49.60;101695.77;108350;1274;61943;-88
2022/08/31 09:44:48;;;;;;;1.90;0.60;;;;;;;22.27;48.54;101691.04;108413;1273;60744;-87
2022/08/31 09:47:49;;;;;;;2.70;0.70;;;;;;;22.41;48.58;101688.52;108614;1273;76041;-86
2022/08/31 09:50:29;;;;;;;3.10;0.70;;;;;;;22.62;48.82;101683.30;108542;1274;71371;-86
2022/08/31 09:56:14;;;;;;;3.00;0.90;;;;;;;22.82;47.12;101682.23;108468;1272;60597;-86
2022/08/31 09:58:43;;;;;;;4.30;0.90;;;;;;;22.85;47.24;101682.13;108473;1272;60949;-86
2022/08/31 10:01:32;;;;;;;2.20;0.70;;;;;;;22.94;46.62;101678.22;108436;1274;73629;-86
2022/08/31 10:04:24;;;;;;;2.40;0.70;;;;;;;23.00;46.04;101675.10;108489;1273;70266;-86
2022/08/31 10:07:10;;;;;;;2.80;0.70;;;;;;;23.16;45.33;101671.98;108260;1274;74904;-86
2022/08/31 10:09:43;;;;;;;4.00;1.00;;;;;;;23.34;45.09;101669.52;108512;1273;61912;-86
2022/08/31 10:12:24;;;;;;;2.50;0.60;;;;;;;23.53;44.62;101670.70;108473;1272;60572;-86
2022/08/31 10:15:02;;;;;;;3.50;0.50;;;;;;;23.70;42.75;101672.14;108241;1272;74312;-85
2022/08/31 10:17:37;;;;;;;2.30;0.70;;;;;;;23.81;42.87;101673.57;108426;1274;71781;-85
2022/08/31 10:20:21;;;;;;;3.10;0.70;;;;;;;23.98;43.37;101668.63;108176;1274;72949;-86
2022/08/31 10:22:51;;;;;;;2.30;0.60;;;;;;;24.11;42.88;101664.19;108340;1273;61179;-85
2022/08/31 10:25:25;;;;;;;1.30;0.50;;;;;;;24.19;42.59;101661.91;108434;1274;60644;-85
2022/08/31 10:28:14;;;;;;;2.10;0.60;;;;;;;24.30;40.76;101664.52;108472;1271;74857;-86
2022/08/31 10:30:53;;;;;;;3.10;0.50;;;;;;;24.48;40.71;101660.02;108303;1273;72821;-85
2022/08/31 10:35:01;;;;;;;1.70;0.50;;;;;;;24.61;40.28;101655.81;108471;1273;72639;-85
2022/08/31 10:36:14;;;;;;;1.80;0.40;;;;;;;24.65;38.75;101653.64;108412;1273;60198;-85
2022/08/31 10:38:45;;;;;;;1.60;0.50;;;;;;;24.65;37.39;101654.29;108468;1274;60643;-85
2022/08/31 10:41:17;;;;;;;3.00;0.60;;;;;;;24.65;37.72;101658.89;108589;1273;74852;-85
2022/08/31 10:44:16;;;;;;;1.60;0.50;;;;;;;24.72;37.57;101655.43;108535;1274;71449;-85
2022/08/31 10:46:44;;;;;;;1.70;0.60;;;;;;;24.84;36.70;101653.73;108548;1274;73160;-85
2022/08/31 10:49:11;;;;;;;2.50;0.60;;;;;;;24.86;36.97;101653.02;108327;1273;61854;-85
2022/08/31 10:51:55;;;;;;;2.00;0.70;;;;;;;24.89;37.17;101651.59;108415;1274;59270;-85
2022/08/31 10:54:23;;;;;;;4.10;0.90;;;;;;;24.93;37.71;101654.47;108431;1273;74991;-85
2022/08/31 10:57:05;;;;;;;1.70;0.70;;;;;;;25.04;37.35;101652.20;108473;1274;71367;-85
2022/08/31 10:59:40;;;;;;;2.40;0.50;;;;;;;25.13;36.20;101647.07;108515;1273;74014;-85
2022/08/31 11:02:23;;;;;;;2.70;0.70;;;;;;;25.20;36.03;101642.06;108417;1273;60649;-85
2022/08/31 11:05:30;;;;;;;2.00;0.50;;;;;;;25.28;35.94;101639.48;108410;1271;60552;-85
2022/08/31 11:08:05;;;;;;;1.10;0.50;;;;;;;25.34;35.14;101639.35;108502;1273;74931;-86
2022/08/31 11:10:55;;;;;;;2.30;0.50;;;;;;;25.45;34.92;101632.32;108502;1273;71518;-85
2022/08/31 11:13:59;;;;;;;6.20;0.70;;;;;;;25.52;33.90;101635.50;108422;1273;70602;-84
2022/08/31 11:16:41;;;;;;;3.20;0.90;;;;;;;25.60;32.79;101632.40;108403;1274;59508;-84
2022/08/31 11:19:09;;;;;;;1.30;0.50;;;;;;;25.57;32.04;101633.23;108446;1273;60394;-86
2022/08/31 11:21:59;;;;;;;2.00;0.60;;;;;;;25.48;31.84;101630.29;108489;1272;74372;-84
2022/08/31 11:25:06;;;;;;;2.00;0.60;;;;;;;25.48;32.36;101631.20;108475;1273;70186;-84
2022/08/31 11:27:43;;;;;;;2.70;0.70;;;;;;;25.55;32.42;101626.91;108527;1273;74472;-85
2022/08/31 11:30:23;;;;;;;2.60;0.60;;;;;;;25.60;31.40;101624.91;108433;1273;60059;-85
2022/08/31 11:32:56;;;;;;;2.30;0.70;;;;;;;25.58;30.97;101624.61;108491;1271;59479;-85
2022/08/31 11:36:01;;;;;;;0.90;0.40;;;;;;;25.66;30.38;101622.42;108514;1271;76020;-85
2022/08/31 11:38:46;;;;;;;1.50;0.60;;;;;;;25.67;30.50;101614.12;108467;1273;72322;-85
2022/08/31 11:41:42;;;;;;;1.40;0.70;;;;;;;25.74;30.90;101607.72;108304;1273;74082;-85
2022/08/31 11:44:28;;;;;;;1.50;0.40;;;;;;;25.87;30.45;101609.63;108427;1273;61444;-85
2022/08/31 11:47:13;;;;;;;2.10;0.60;;;;;;;26.04;30.36;101610.42;108387;1274;60664;-85
2022/08/31 11:49:44;;;;;;;1.40;0.70;;;;;;;26.21;30.57;101604.38;108381;1273;75380;-85
2022/08/31 11:52:42;;;;;;;2.60;0.60;;;;;;;26.44;31.44;101606.06;108459;1271;71530;-86
2022/08/31 11:55:28;;;;;;;3.10;0.70;;;;;;;26.74;31.72;101602.29;108089;1273;74090;-86
2022/08/31 11:58:08;;;;;;;2.70;0.80;;;;;;;27.07;30.57;101598.24;108346;1273;60461;-85
2022/08/31 12:01:01;;;;;;;1.50;0.50;;;;;;;27.26;29.53;101592.77;108484;1271;59998;-86
2022/08/31 12:03:42;;;;;;;2.40;0.80;;;;;;;27.36;29.73;101587.41;108439;1273;75983;-86
2022/08/31 12:06:36;;;;;;;1.50;0.60;;;;;;;27.38;28.61;101586.34;108431;1273;71299;-85
2022/08/31 12:09:31;;;;;;;2.40;0.60;;;;;;;27.44;28.18;101583.31;108345;1273;73114;-85
2022/08/31 12:12:06;;;;;;;3.40;0.70;;;;;;;27.55;29.03;101585.69;108381;1274;61791;-85